sensor_id;sensor_type;location;lat;lon;timestamp;temperature;humidity
8527;DHT22;4301;48.362;8.478;2022-12-26T00:01:31;7.10;99.90
8527;DHT22;4301;48.362;8.478;2022-12-26T00:03:58;7.40;99.90
8527;DHT22;4301;48.362;8.478;2022-12-26T00:06:27;7.60;99.60
8527;DHT22;4301;48.362;8.478;2022-12-26T00:08:57;8.00;90.40
8527;DHT22;4301;48.362;8.478;2022-12-26T00:11:24;8.10;65.00
8527;DHT22;4301;48.362;8.478;2022-12-26T00:13:55;8.30;40.70
8527;DHT22;4301;48.362;8.478;2022-12-26T00:16:23;8.50;23.70
8527;DHT22;4301;48.362;8.478;2022-12-26T00:18:51;8.60;1.00
8527;DHT22;4301;48.362;8.478;2022-12-26T00:21:18;8.70;1.00
8527;DHT22;4301;48.362;8.478;2022-12-26T00:23:46;8.70;1.00
8527;DHT22;4301;48.362;8.478;2022-12-26T00:26:16;8.70;1.00
8527;DHT22;4301;48.362;8.478;2022-12-26T00:28:44;8.80;1.00
8527;DHT22;4301;48.362;8.478;2022-12-26T00:31:14;8.90;1.00
8527;DHT22;4301;48.362;8.478;2022-12-26T00:33:42;8.90;1.00
8527;DHT22;4301;48.362;8.478;2022-12-26T00:36:10;8.90;1.00
8527;DHT22;4301;48.362;8.478;2022-12-26T00:38:39;8.90;1.00
8527;DHT22;4301;48.362;8.478;2022-12-26T00:41:08;8.90;1.00
8527;DHT22;4301;48.362;8.478;2022-12-26T00:43:36;9.00;1.00
8527;DHT22;4301;48.362;8.478;2022-12-26T00:46:04;9.00;1.00
8527;DHT22;4301;48.362;8.478;2022-12-26T00:48:32;9.00;1.00
8527;DHT22;4301;48.362;8.478;2022-12-26T00:50:59;9.00;1.00
8527;DHT22;4301;48.362;8.478;2022-12-26T00:53:26;9.10;1.00
8527;DHT22;4301;48.362;8.478;2022-12-26T00:55:53;9.10;1.00
8527;DHT22;4301;48.362;8.478;2022-12-26T00:58:21;9.10;1.00
8527;DHT22;4301;48.362;8.478;2022-12-26T01:00:50;9.20;1.00
8527;DHT22;4301;48.362;8.478;2022-12-26T01:03:18;9.40;1.00
8527;DHT22;4301;48.362;8.478;2022-12-26T01:05:46;9.40;1.00
8527;DHT22;4301;48.362;8.478;2022-12-26T01:08:14;9.40;1.00
8527;DHT22;4301;48.362;8.478;2022-12-26T01:10:41;9.40;1.00
8527;DHT22;4301;48.362;8.478;2022-12-26T01:13:08;9.40;1.00
8527;DHT22;4301;48.362;8.478;2022-12-26T01:15:35;9.40;1.00
8527;DHT22;4301;48.362;8.478;2022-12-26T01:18:04;9.40;1.00
8527;DHT22;4301;48.362;8.478;2022-12-26T01:20:31;9.40;1.00
8527;DHT22;4301;48.362;8.478;2022-12-26T01:22:58;9.50;1.00
8527;DHT22;4301;48.362;8.478;2022-12-26T01:25:25;9.50;1.00
8527;DHT22;4301;48.362;8.478;2022-12-26T01:27:52;9.60;1.00
8527;DHT22;4301;48.362;8.478;2022-12-26T01:30:19;9.60;1.00
8527;DHT22;4301;48.362;8.478;2022-12-26T01:32:46;9.60;1.00
8527;DHT22;4301;48.362;8.478;2022-12-26T01:35:14;9.70;1.00
8527;DHT22;4301;48.362;8.478;2022-12-26T01:37:41;9.80;1.00
8527;DHT22;4301;48.362;8.478;2022-12-26T01:40:11;9.80;1.00
8527;DHT22;4301;48.362;8.478;2022-12-26T01:42:39;9.80;1.00
8527;DHT22;4301;48.362;8.478;2022-12-26T01:45:20;9.80;1.00
8527;DHT22;4301;48.362;8.478;2022-12-26T01:47:50;9.90;1.00
8527;DHT22;4301;48.362;8.478;2022-12-26T01:50:29;9.90;1.00
8527;DHT22;4301;48.362;8.478;2022-12-26T01:53:00;10.00;1.00
8527;DHT22;4301;48.362;8.478;2022-12-26T01:55:29;10.00;1.00
8527;DHT22;4301;48.362;8.478;2022-12-26T01:58:01;10.10;99.90
8527;DHT22;4301;48.362;8.478;2022-12-26T02:00:31;10.00;1.00
8527;DHT22;4301;48.362;8.478;2022-12-26T02:02:58;10.00;1.00
8527;DHT22;4301;48.362;8.478;2022-12-26T02:05:45;10.10;99.90
8527;DHT22;4301;48.362;8.478;2022-12-26T02:08:14;10.10;99.90
8527;DHT22;4301;48.362;8.478;2022-12-26T02:10:46;10.20;99.90
8527;DHT22;4301;48.362;8.478;2022-12-26T02:13:14;10.10;99.90
8527;DHT22;4301;48.362;8.478;2022-12-26T02:15:41;10.10;99.90
8527;DHT22;4301;48.362;8.478;2022-12-26T02:18:08;10.10;99.90
8527;DHT22;4301;48.362;8.478;2022-12-26T02:20:40;10.10;99.90
8527;DHT22;4301;48.362;8.478;2022-12-26T02:23:39;10.10;99.90
8527;DHT22;4301;48.362;8.478;2022-12-26T02:26:36;10.20;99.90
8527;DHT22;4301;48.362;8.478;2022-12-26T02:32:12;10.20;99.90
8527;DHT22;4301;48.362;8.478;2022-12-26T02:34:49;10.30;43.50
8527;DHT22;4301;48.362;8.478;2022-12-26T02:37:28;10.30;1.00
8527;DHT22;4301;48.362;8.478;2022-12-26T02:40:11;10.30;1.00
8527;DHT22;4301;48.362;8.478;2022-12-26T02:42:50;10.30;1.00
8527;DHT22;4301;48.362;8.478;2022-12-26T02:45:26;10.20;1.00
8527;DHT22;4301;48.362;8.478;2022-12-26T02:48:19;10.20;1.00
8527;DHT22;4301;48.362;8.478;2022-12-26T02:51:00;10.20;1.00
8527;DHT22;4301;48.362;8.478;2022-12-26T02:53:53;10.10;21.30
8527;DHT22;4301;48.362;8.478;2022-12-26T02:56:43;10.00;99.90
8527;DHT22;4301;48.362;8.478;2022-12-26T02:59:33;10.00;99.90
8527;DHT22;4301;48.362;8.478;2022-12-26T03:02:25;10.20;1.00
8527;DHT22;4301;48.362;8.478;2022-12-26T03:05:17;10.30;99.90
8527;DHT22;4301;48.362;8.478;2022-12-26T03:08:05;10.30;99.90
8527;DHT22;4301;48.362;8.478;2022-12-26T03:10:50;10.30;99.90
8527;DHT22;4301;48.362;8.478;2022-12-26T03:13:33;10.30;99.90
8527;DHT22;4301;48.362;8.478;2022-12-26T03:16:04;10.30;1.00
8527;DHT22;4301;48.362;8.478;2022-12-26T03:18:53;10.30;1.00
8527;DHT22;4301;48.362;8.478;2022-12-26T03:21:24;10.30;5.80
8527;DHT22;4301;48.362;8.478;2022-12-26T03:23:53;10.30;99.90
8527;DHT22;4301;48.362;8.478;2022-12-26T03:26:25;10.30;1.00
8527;DHT22;4301;48.362;8.478;2022-12-26T03:29:07;10.20;99.90
8527;DHT22;4301;48.362;8.478;2022-12-26T03:31:52;10.20;99.90
8527;DHT22;4301;48.362;8.478;2022-12-26T03:34:19;10.20;99.90
8527;DHT22;4301;48.362;8.478;2022-12-26T03:39:48;10.20;99.90
8527;DHT22;4301;48.362;8.478;2022-12-26T03:42:41;10.20;99.90
8527;DHT22;4301;48.362;8.478;2022-12-26T03:45:37;10.20;99.90
8527;DHT22;4301;48.362;8.478;2022-12-26T03:48:28;10.20;99.90
8527;DHT22;4301;48.362;8.478;2022-12-26T03:51:18;10.10;1.00
8527;DHT22;4301;48.362;8.478;2022-12-26T03:54:10;10.10;1.00
8527;DHT22;4301;48.362;8.478;2022-12-26T03:56:59;10.10;1.00
8527;DHT22;4301;48.362;8.478;2022-12-26T03:59:49;10.00;1.00
8527;DHT22;4301;48.362;8.478;2022-12-26T04:02:36;10.00;1.00
8527;DHT22;4301;48.362;8.478;2022-12-26T04:05:23;10.00;1.00
8527;DHT22;4301;48.362;8.478;2022-12-26T04:08:14;10.00;1.00
8527;DHT22;4301;48.362;8.478;2022-12-26T04:11:02;10.10;1.00
8527;DHT22;4301;48.362;8.478;2022-12-26T04:13:52;10.20;1.00
8527;DHT22;4301;48.362;8.478;2022-12-26T04:16:50;10.20;1.00
8527;DHT22;4301;48.362;8.478;2022-12-26T04:19:59;10.30;1.00
8527;DHT22;4301;48.362;8.478;2022-12-26T04:22:36;10.30;1.00
8527;DHT22;4301;48.362;8.478;2022-12-26T04:25:24;10.40;99.90
8527;DHT22;4301;48.362;8.478;2022-12-26T04:28:12;10.40;99.90
8527;DHT22;4301;48.362;8.478;2022-12-26T04:31:01;10.50;73.90
8527;DHT22;4301;48.362;8.478;2022-12-26T04:33:51;10.50;1.00
8527;DHT22;4301;48.362;8.478;2022-12-26T04:36:40;10.40;1.00
8527;DHT22;4301;48.362;8.478;2022-12-26T04:39:30;10.50;99.90
8527;DHT22;4301;48.362;8.478;2022-12-26T04:42:16;10.60;1.00
8527;DHT22;4301;48.362;8.478;2022-12-26T04:45:03;10.70;1.00
8527;DHT22;4301;48.362;8.478;2022-12-26T04:47:31;10.70;99.90
8527;DHT22;4301;48.362;8.478;2022-12-26T04:50:03;10.70;83.30
8527;DHT22;4301;48.362;8.478;2022-12-26T04:52:40;10.60;99.90
8527;DHT22;4301;48.362;8.478;2022-12-26T04:55:25;10.60;1.00
8527;DHT22;4301;48.362;8.478;2022-12-26T04:57:52;10.70;1.00
8527;DHT22;4301;48.362;8.478;2022-12-26T05:00:21;10.60;88.20
8527;DHT22;4301;48.362;8.478;2022-12-26T05:02:49;10.60;1.00
8527;DHT22;4301;48.362;8.478;2022-12-26T05:05:38;10.60;1.00
8527;DHT22;4301;48.362;8.478;2022-12-26T05:08:26;10.60;1.00
8527;DHT22;4301;48.362;8.478;2022-12-26T05:11:13;10.60;1.00
8527;DHT22;4301;48.362;8.478;2022-12-26T05:13:40;10.60;99.90
8527;DHT22;4301;48.362;8.478;2022-12-26T05:16:08;10.60;99.90
8527;DHT22;4301;48.362;8.478;2022-12-26T05:18:53;10.70;99.90
8527;DHT22;4301;48.362;8.478;2022-12-26T05:21:37;10.60;99.90
8527;DHT22;4301;48.362;8.478;2022-12-26T05:24:22;10.70;1.00
8527;DHT22;4301;48.362;8.478;2022-12-26T05:27:10;10.60;1.00
8527;DHT22;4301;48.362;8.478;2022-12-26T05:29:56;10.60;1.00
8527;DHT22;4301;48.362;8.478;2022-12-26T05:32:24;10.60;99.90
8527;DHT22;4301;48.362;8.478;2022-12-26T05:35:08;10.60;99.90
8527;DHT22;4301;48.362;8.478;2022-12-26T05:37:36;10.60;99.90
8527;DHT22;4301;48.362;8.478;2022-12-26T05:40:03;10.60;99.90
8527;DHT22;4301;48.362;8.478;2022-12-26T05:42:30;10.60;1.00
8527;DHT22;4301;48.362;8.478;2022-12-26T05:44:57;10.70;1.00
8527;DHT22;4301;48.362;8.478;2022-12-26T05:47:25;10.70;1.00
8527;DHT22;4301;48.362;8.478;2022-12-26T05:49:52;10.80;1.00
8527;DHT22;4301;48.362;8.478;2022-12-26T05:52:19;10.80;90.50
8527;DHT22;4301;48.362;8.478;2022-12-26T05:54:46;10.90;99.90
8527;DHT22;4301;48.362;8.478;2022-12-26T05:57:13;11.00;99.90
8527;DHT22;4301;48.362;8.478;2022-12-26T05:59:40;11.00;99.90
8527;DHT22;4301;48.362;8.478;2022-12-26T06:02:07;10.90;99.90
8527;DHT22;4301;48.362;8.478;2022-12-26T06:04:35;10.90;1.00
8527;DHT22;4301;48.362;8.478;2022-12-26T06:07:02;10.90;1.00
8527;DHT22;4301;48.362;8.478;2022-12-26T06:09:29;11.00;1.00
8527;DHT22;4301;48.362;8.478;2022-12-26T06:11:56;11.10;99.90
8527;DHT22;4301;48.362;8.478;2022-12-26T06:14:23;11.10;99.90
8527;DHT22;4301;48.362;8.478;2022-12-26T06:16:50;11.20;1.00
8527;DHT22;4301;48.362;8.478;2022-12-26T06:19:17;11.30;1.00
8527;DHT22;4301;48.362;8.478;2022-12-26T06:21:45;11.30;1.00
8527;DHT22;4301;48.362;8.478;2022-12-26T06:24:12;11.30;1.00
8527;DHT22;4301;48.362;8.478;2022-12-26T06:26:39;11.20;1.00
8527;DHT22;4301;48.362;8.478;2022-12-26T06:29:07;11.20;1.00
8527;DHT22;4301;48.362;8.478;2022-12-26T06:31:35;11.10;1.00
8527;DHT22;4301;48.362;8.478;2022-12-26T06:34:02;11.20;1.00
8527;DHT22;4301;48.362;8.478;2022-12-26T06:36:29;11.20;1.00
8527;DHT22;4301;48.362;8.478;2022-12-26T06:38:57;11.20;99.90
8527;DHT22;4301;48.362;8.478;2022-12-26T06:41:25;11.10;99.90
8527;DHT22;4301;48.362;8.478;2022-12-26T06:43:53;11.20;99.90
8527;DHT22;4301;48.362;8.478;2022-12-26T06:46:22;11.20;99.90
8527;DHT22;4301;48.362;8.478;2022-12-26T06:48:50;11.20;99.90
8527;DHT22;4301;48.362;8.478;2022-12-26T06:51:19;11.20;1.00
8527;DHT22;4301;48.362;8.478;2022-12-26T06:53:47;11.10;99.90
8527;DHT22;4301;48.362;8.478;2022-12-26T06:56:17;11.20;99.90
8527;DHT22;4301;48.362;8.478;2022-12-26T06:58:44;11.20;99.90
8527;DHT22;4301;48.362;8.478;2022-12-26T07:01:13;11.10;99.90
8527;DHT22;4301;48.362;8.478;2022-12-26T07:03:41;11.10;1.00
8527;DHT22;4301;48.362;8.478;2022-12-26T07:06:11;11.10;99.90
8527;DHT22;4301;48.362;8.478;2022-12-26T07:08:38;11.10;99.90
8527;DHT22;4301;48.362;8.478;2022-12-26T07:11:12;11.00;1.00
8527;DHT22;4301;48.362;8.478;2022-12-26T07:13:41;10.90;99.90
8527;DHT22;4301;48.362;8.478;2022-12-26T07:16:09;10.80;99.90
8527;DHT22;4301;48.362;8.478;2022-12-26T07:18:36;10.70;99.90
8527;DHT22;4301;48.362;8.478;2022-12-26T07:21:04;10.70;1.00
8527;DHT22;4301;48.362;8.478;2022-12-26T07:23:31;10.70;99.90
8527;DHT22;4301;48.362;8.478;2022-12-26T07:25:58;10.70;99.90
8527;DHT22;4301;48.362;8.478;2022-12-26T07:28:26;10.60;99.90
8527;DHT22;4301;48.362;8.478;2022-12-26T07:30:54;10.60;99.90
8527;DHT22;4301;48.362;8.478;2022-12-26T07:33:22;10.50;99.90
8527;DHT22;4301;48.362;8.478;2022-12-26T07:35:49;10.50;1.00
8527;DHT22;4301;48.362;8.478;2022-12-26T07:38:16;9.80;1.00
8527;DHT22;4301;48.362;8.478;2022-12-26T07:40:43;9.40;1.00
8527;DHT22;4301;48.362;8.478;2022-12-26T07:43:10;9.10;1.00
8527;DHT22;4301;48.362;8.478;2022-12-26T07:45:37;8.80;1.00
8527;DHT22;4301;48.362;8.478;2022-12-26T07:48:06;8.60;1.00
8527;DHT22;4301;48.362;8.478;2022-12-26T07:50:33;8.60;1.00
8527;DHT22;4301;48.362;8.478;2022-12-26T07:52:59;8.40;1.00
8527;DHT22;4301;48.362;8.478;2022-12-26T07:55:26;8.40;12.20
8527;DHT22;4301;48.362;8.478;2022-12-26T07:57:53;8.50;44.20
8527;DHT22;4301;48.362;8.478;2022-12-26T08:00:20;8.40;46.40
8527;DHT22;4301;48.362;8.478;2022-12-26T08:02:49;8.40;28.60
8527;DHT22;4301;48.362;8.478;2022-12-26T08:05:19;8.30;58.50
8527;DHT22;4301;48.362;8.478;2022-12-26T08:07:46;8.20;72.00
8527;DHT22;4301;48.362;8.478;2022-12-26T08:10:13;8.10;90.40
8527;DHT22;4301;48.362;8.478;2022-12-26T08:12:40;8.00;99.90
8527;DHT22;4301;48.362;8.478;2022-12-26T08:15:08;7.90;99.90
8527;DHT22;4301;48.362;8.478;2022-12-26T08:17:37;7.90;99.90
8527;DHT22;4301;48.362;8.478;2022-12-26T08:20:04;7.80;99.90
8527;DHT22;4301;48.362;8.478;2022-12-26T08:22:33;7.80;99.90
8527;DHT22;4301;48.362;8.478;2022-12-26T08:25:00;7.80;99.90
8527;DHT22;4301;48.362;8.478;2022-12-26T08:27:27;7.80;99.90
8527;DHT22;4301;48.362;8.478;2022-12-26T08:29:54;7.80;99.90
8527;DHT22;4301;48.362;8.478;2022-12-26T08:32:21;8.00;99.90
8527;DHT22;4301;48.362;8.478;2022-12-26T08:34:48;8.10;99.90
8527;DHT22;4301;48.362;8.478;2022-12-26T08:37:15;8.40;99.90
8527;DHT22;4301;48.362;8.478;2022-12-26T08:39:43;8.60;99.90
8527;DHT22;4301;48.362;8.478;2022-12-26T08:42:10;8.80;99.90
8527;DHT22;4301;48.362;8.478;2022-12-26T08:44:37;8.90;99.90
8527;DHT22;4301;48.362;8.478;2022-12-26T08:47:04;8.90;99.90
8527;DHT22;4301;48.362;8.478;2022-12-26T08:49:31;9.00;99.90
8527;DHT22;4301;48.362;8.478;2022-12-26T08:51:58;9.00;99.90
8527;DHT22;4301;48.362;8.478;2022-12-26T08:54:25;9.00;99.90
8527;DHT22;4301;48.362;8.478;2022-12-26T08:56:53;9.10;99.90
8527;DHT22;4301;48.362;8.478;2022-12-26T08:59:20;9.10;99.90
8527;DHT22;4301;48.362;8.478;2022-12-26T09:01:47;9.10;99.90
8527;DHT22;4301;48.362;8.478;2022-12-26T09:04:14;9.10;99.90
8527;DHT22;4301;48.362;8.478;2022-12-26T09:06:41;9.10;99.90
8527;DHT22;4301;48.362;8.478;2022-12-26T09:09:09;9.10;99.90
8527;DHT22;4301;48.362;8.478;2022-12-26T09:11:37;9.10;99.90
8527;DHT22;4301;48.362;8.478;2022-12-26T09:14:06;9.10;99.90
8527;DHT22;4301;48.362;8.478;2022-12-26T09:16:35;9.10;99.90
8527;DHT22;4301;48.362;8.478;2022-12-26T09:19:04;9.10;99.90
8527;DHT22;4301;48.362;8.478;2022-12-26T09:21:32;9.10;99.90
8527;DHT22;4301;48.362;8.478;2022-12-26T09:24:01;9.10;99.90
8527;DHT22;4301;48.362;8.478;2022-12-26T09:26:29;9.10;99.90
8527;DHT22;4301;48.362;8.478;2022-12-26T09:28:56;9.10;99.90
8527;DHT22;4301;48.362;8.478;2022-12-26T09:31:26;9.10;99.90
8527;DHT22;4301;48.362;8.478;2022-12-26T09:33:54;9.00;99.90
8527;DHT22;4301;48.362;8.478;2022-12-26T09:36:23;9.00;99.90
8527;DHT22;4301;48.362;8.478;2022-12-26T09:38:51;9.00;99.90
8527;DHT22;4301;48.362;8.478;2022-12-26T09:41:48;9.00;99.90
8527;DHT22;4301;48.362;8.478;2022-12-26T09:44:22;9.00;99.90
8527;DHT22;4301;48.362;8.478;2022-12-26T09:46:59;9.00;99.90
8527;DHT22;4301;48.362;8.478;2022-12-26T09:49:32;9.00;99.90
8527;DHT22;4301;48.362;8.478;2022-12-26T09:52:04;9.00;99.90
8527;DHT22;4301;48.362;8.478;2022-12-26T09:54:35;8.90;99.90
8527;DHT22;4301;48.362;8.478;2022-12-26T09:57:10;8.90;99.90
8527;DHT22;4301;48.362;8.478;2022-12-26T09:59:44;8.90;99.90
8527;DHT22;4301;48.362;8.478;2022-12-26T10:02:17;8.90;99.90
8527;DHT22;4301;48.362;8.478;2022-12-26T10:04:45;8.90;99.90
8527;DHT22;4301;48.362;8.478;2022-12-26T10:07:19;9.00;99.90
8527;DHT22;4301;48.362;8.478;2022-12-26T10:10:00;8.90;99.90
8527;DHT22;4301;48.362;8.478;2022-12-26T10:12:40;8.90;99.90
8527;DHT22;4301;48.362;8.478;2022-12-26T10:15:18;8.80;99.90
8527;DHT22;4301;48.362;8.478;2022-12-26T10:17:57;8.70;99.90
8527;DHT22;4301;48.362;8.478;2022-12-26T10:20:30;8.60;99.90
8527;DHT22;4301;48.362;8.478;2022-12-26T10:23:17;8.60;99.90
8527;DHT22;4301;48.362;8.478;2022-12-26T10:25:50;8.50;99.90
8527;DHT22;4301;48.362;8.478;2022-12-26T10:28:26;8.50;99.90
8527;DHT22;4301;48.362;8.478;2022-12-26T10:30:56;8.50;99.90
8527;DHT22;4301;48.362;8.478;2022-12-26T10:33:32;8.40;99.90
8527;DHT22;4301;48.362;8.478;2022-12-26T10:36:00;8.40;99.90
8527;DHT22;4301;48.362;8.478;2022-12-26T10:38:34;8.40;99.90
8527;DHT22;4301;48.362;8.478;2022-12-26T10:41:05;8.30;99.90
8527;DHT22;4301;48.362;8.478;2022-12-26T10:43:37;8.30;99.90
8527;DHT22;4301;48.362;8.478;2022-12-26T10:46:19;8.30;99.90
8527;DHT22;4301;48.362;8.478;2022-12-26T10:48:50;8.30;99.90
8527;DHT22;4301;48.362;8.478;2022-12-26T10:51:17;8.30;99.90
8527;DHT22;4301;48.362;8.478;2022-12-26T10:53:48;8.20;99.90
8527;DHT22;4301;48.362;8.478;2022-12-26T10:56:16;8.20;99.90
8527;DHT22;4301;48.362;8.478;2022-12-26T10:58:44;8.30;99.90
8527;DHT22;4301;48.362;8.478;2022-12-26T11:01:32;8.30;99.90
8527;DHT22;4301;48.362;8.478;2022-12-26T11:04:03;8.30;99.90
8527;DHT22;4301;48.362;8.478;2022-12-26T11:08:59;8.30;99.90
8527;DHT22;4301;48.362;8.478;2022-12-26T11:11:27;8.20;99.90
8527;DHT22;4301;48.362;8.478;2022-12-26T11:14:26;8.20;99.90
8527;DHT22;4301;48.362;8.478;2022-12-26T11:16:55;8.30;99.90
8527;DHT22;4301;48.362;8.478;2022-12-26T11:19:29;8.30;99.90
8527;DHT22;4301;48.362;8.478;2022-12-26T11:22:19;8.20;99.90
8527;DHT22;4301;48.362;8.478;2022-12-26T11:27:48;8.10;99.90
8527;DHT22;4301;48.362;8.478;2022-12-26T11:30:19;8.10;99.90
8527;DHT22;4301;48.362;8.478;2022-12-26T11:32:47;8.10;99.90
8527;DHT22;4301;48.362;8.478;2022-12-26T12:51:55;8.20;99.90
8527;DHT22;4301;48.362;8.478;2022-12-26T12:57:17;8.10;99.90
8527;DHT22;4301;48.362;8.478;2022-12-26T12:59:57;8.10;99.90
8527;DHT22;4301;48.362;8.478;2022-12-26T13:02:30;8.10;99.90
8527;DHT22;4301;48.362;8.478;2022-12-26T13:05:03;8.10;99.90
8527;DHT22;4301;48.362;8.478;2022-12-26T13:07:35;8.10;99.90
8527;DHT22;4301;48.362;8.478;2022-12-26T13:10:12;8.10;99.90
8527;DHT22;4301;48.362;8.478;2022-12-26T13:12:45;8.10;99.90
8527;DHT22;4301;48.362;8.478;2022-12-26T13:15:22;8.10;99.90
8527;DHT22;4301;48.362;8.478;2022-12-26T13:17:55;8.10;99.90
8527;DHT22;4301;48.362;8.478;2022-12-26T13:20:29;8.10;99.90
8527;DHT22;4301;48.362;8.478;2022-12-26T13:23:03;8.10;99.90
8527;DHT22;4301;48.362;8.478;2022-12-26T13:26:04;8.10;99.90
8527;DHT22;4301;48.362;8.478;2022-12-26T13:28:37;8.10;99.90
8527;DHT22;4301;48.362;8.478;2022-12-26T13:31:04;8.10;99.90
8527;DHT22;4301;48.362;8.478;2022-12-26T13:33:32;8.10;99.90
8527;DHT22;4301;48.362;8.478;2022-12-26T13:36:01;8.10;99.90
8527;DHT22;4301;48.362;8.478;2022-12-26T13:41:26;8.10;99.90
8527;DHT22;4301;48.362;8.478;2022-12-26T13:44:25;8.10;99.90
8527;DHT22;4301;48.362;8.478;2022-12-26T13:46:54;8.10;99.90
8527;DHT22;4301;48.362;8.478;2022-12-26T13:49:27;8.10;99.90
8527;DHT22;4301;48.362;8.478;2022-12-26T13:51:59;8.10;99.90
8527;DHT22;4301;48.362;8.478;2022-12-26T13:55:18;8.10;99.90
8527;DHT22;4301;48.362;8.478;2022-12-26T13:57:46;8.00;99.90
8527;DHT22;4301;48.362;8.478;2022-12-26T14:00:43;8.10;99.90
8527;DHT22;4301;48.362;8.478;2022-12-26T14:06:35;8.10;99.90
8527;DHT22;4301;48.362;8.478;2022-12-26T14:09:14;8.10;99.90
8527;DHT22;4301;48.362;8.478;2022-12-26T14:12:00;8.10;99.90
8527;DHT22;4301;48.362;8.478;2022-12-26T14:14:47;8.10;99.90
8527;DHT22;4301;48.362;8.478;2022-12-26T14:17:25;8.10;99.90
8527;DHT22;4301;48.362;8.478;2022-12-26T14:20:04;8.10;99.90
8527;DHT22;4301;48.362;8.478;2022-12-26T14:22:42;8.10;99.90
8527;DHT22;4301;48.362;8.478;2022-12-26T14:25:19;8.10;99.90
8527;DHT22;4301;48.362;8.478;2022-12-26T14:27:54;8.10;99.90
8527;DHT22;4301;48.362;8.478;2022-12-26T14:30:28;8.10;99.90
8527;DHT22;4301;48.362;8.478;2022-12-26T14:33:21;8.10;99.90
8527;DHT22;4301;48.362;8.478;2022-12-26T14:36:01;8.10;99.90
8527;DHT22;4301;48.362;8.478;2022-12-26T14:38:39;8.10;99.90
8527;DHT22;4301;48.362;8.478;2022-12-26T14:41:11;8.10;99.90
8527;DHT22;4301;48.362;8.478;2022-12-26T14:44:09;8.10;99.90
8527;DHT22;4301;48.362;8.478;2022-12-26T14:46:58;8.00;99.90
8527;DHT22;4301;48.362;8.478;2022-12-26T14:49:38;8.00;99.90
8527;DHT22;4301;48.362;8.478;2022-12-26T14:52:36;8.00;99.90
8527;DHT22;4301;48.362;8.478;2022-12-26T14:58:29;8.00;99.90
8527;DHT22;4301;48.362;8.478;2022-12-26T15:01:47;7.90;99.90
8527;DHT22;4301;48.362;8.478;2022-12-26T15:04:45;7.90;99.90
8527;DHT22;4301;48.362;8.478;2022-12-26T15:13:37;7.90;99.90
8527;DHT22;4301;48.362;8.478;2022-12-26T15:16:28;7.90;99.90
8527;DHT22;4301;48.362;8.478;2022-12-26T15:19:50;7.90;99.90
8527;DHT22;4301;48.362;8.478;2022-12-26T15:22:51;7.90;99.90
8527;DHT22;4301;48.362;8.478;2022-12-26T15:25:42;7.90;99.90
8527;DHT22;4301;48.362;8.478;2022-12-26T15:31:29;7.90;99.90
8527;DHT22;4301;48.362;8.478;2022-12-26T15:34:01;7.90;99.90
8527;DHT22;4301;48.362;8.478;2022-12-26T15:36:42;7.90;99.90
8527;DHT22;4301;48.362;8.478;2022-12-26T15:39:19;7.90;99.90
8527;DHT22;4301;48.362;8.478;2022-12-26T15:41:55;7.90;99.90
8527;DHT22;4301;48.362;8.478;2022-12-26T15:44:27;7.90;99.90
8527;DHT22;4301;48.362;8.478;2022-12-26T15:47:07;8.00;99.90
8527;DHT22;4301;48.362;8.478;2022-12-26T15:49:51;7.90;99.90
8527;DHT22;4301;48.362;8.478;2022-12-26T15:52:33;8.00;99.90
8527;DHT22;4301;48.362;8.478;2022-12-26T15:55:14;8.00;99.90
8527;DHT22;4301;48.362;8.478;2022-12-26T15:57:49;7.90;99.90
8527;DHT22;4301;48.362;8.478;2022-12-26T16:00:21;7.90;99.90
8527;DHT22;4301;48.362;8.478;2022-12-26T16:03:05;7.90;99.90
8527;DHT22;4301;48.362;8.478;2022-12-26T16:05:47;7.90;99.90
8527;DHT22;4301;48.362;8.478;2022-12-26T16:11:16;7.90;99.90
8527;DHT22;4301;48.362;8.478;2022-12-26T16:13:53;7.90;99.90
8527;DHT22;4301;48.362;8.478;2022-12-26T16:16:29;8.00;99.90
8527;DHT22;4301;48.362;8.478;2022-12-26T16:18:56;8.00;99.90
8527;DHT22;4301;48.362;8.478;2022-12-26T16:21:26;8.00;99.90
8527;DHT22;4301;48.362;8.478;2022-12-26T16:24:14;8.00;99.90
8527;DHT22;4301;48.362;8.478;2022-12-26T16:26:43;8.10;99.90
8527;DHT22;4301;48.362;8.478;2022-12-26T16:29:15;8.00;99.90
8527;DHT22;4301;48.362;8.478;2022-12-26T16:31:43;8.10;99.90
8527;DHT22;4301;48.362;8.478;2022-12-26T16:34:14;8.10;99.90
8527;DHT22;4301;48.362;8.478;2022-12-26T16:36:43;8.10;99.90
8527;DHT22;4301;48.362;8.478;2022-12-26T16:39:17;8.10;99.90
8527;DHT22;4301;48.362;8.478;2022-12-26T16:41:59;8.10;99.90
8527;DHT22;4301;48.362;8.478;2022-12-26T16:44:30;8.10;99.90
8527;DHT22;4301;48.362;8.478;2022-12-26T16:46:59;8.10;99.90
8527;DHT22;4301;48.362;8.478;2022-12-26T16:49:27;8.10;99.90
8527;DHT22;4301;48.362;8.478;2022-12-26T16:51:56;8.10;99.90
8527;DHT22;4301;48.362;8.478;2022-12-26T16:54:35;8.10;99.90
8527;DHT22;4301;48.362;8.478;2022-12-26T16:57:07;8.10;99.90
8527;DHT22;4301;48.362;8.478;2022-12-26T16:59:48;8.10;99.90
8527;DHT22;4301;48.362;8.478;2022-12-26T17:02:20;8.10;99.90
8527;DHT22;4301;48.362;8.478;2022-12-26T17:04:53;8.10;99.90
8527;DHT22;4301;48.362;8.478;2022-12-26T17:07:21;8.10;99.90
8527;DHT22;4301;48.362;8.478;2022-12-26T17:09:53;8.10;99.90
8527;DHT22;4301;48.362;8.478;2022-12-26T17:12:24;8.10;99.90
8527;DHT22;4301;48.362;8.478;2022-12-26T17:14:52;8.20;99.90
8527;DHT22;4301;48.362;8.478;2022-12-26T17:17:31;8.10;99.90
8527;DHT22;4301;48.362;8.478;2022-12-26T17:20:32;8.20;99.90
8527;DHT22;4301;48.362;8.478;2022-12-26T17:23:31;8.30;99.90
8527;DHT22;4301;48.362;8.478;2022-12-26T17:26:20;8.30;99.90
8527;DHT22;4301;48.362;8.478;2022-12-26T17:28:46;8.30;99.90
8527;DHT22;4301;48.362;8.478;2022-12-26T17:31:19;8.40;99.90
8527;DHT22;4301;48.362;8.478;2022-12-26T17:33:47;8.40;99.90
8527;DHT22;4301;48.362;8.478;2022-12-26T17:36:16;8.40;99.90
8527;DHT22;4301;48.362;8.478;2022-12-26T17:38:43;8.40;99.90
8527;DHT22;4301;48.362;8.478;2022-12-26T17:41:14;8.40;99.90
8527;DHT22;4301;48.362;8.478;2022-12-26T17:43:43;8.50;99.90
8527;DHT22;4301;48.362;8.478;2022-12-26T17:46:16;8.50;99.90
8527;DHT22;4301;48.362;8.478;2022-12-26T17:48:44;8.50;99.90
8527;DHT22;4301;48.362;8.478;2022-12-26T17:51:15;8.50;99.90
8527;DHT22;4301;48.362;8.478;2022-12-26T17:53:46;8.50;99.90
8527;DHT22;4301;48.362;8.478;2022-12-26T17:56:15;8.50;99.90
8527;DHT22;4301;48.362;8.478;2022-12-26T17:58:45;8.50;99.90
8527;DHT22;4301;48.362;8.478;2022-12-26T18:01:12;8.60;99.90
8527;DHT22;4301;48.362;8.478;2022-12-26T18:03:40;8.60;99.90
8527;DHT22;4301;48.362;8.478;2022-12-26T18:06:09;8.60;99.90
8527;DHT22;4301;48.362;8.478;2022-12-26T18:08:38;8.60;99.90
8527;DHT22;4301;48.362;8.478;2022-12-26T18:11:08;8.60;99.90
8527;DHT22;4301;48.362;8.478;2022-12-26T18:13:36;8.50;99.90
8527;DHT22;4301;48.362;8.478;2022-12-26T18:16:04;8.50;99.90
8527;DHT22;4301;48.362;8.478;2022-12-26T18:18:34;8.40;99.90
8527;DHT22;4301;48.362;8.478;2022-12-26T18:21:02;8.40;99.90
8527;DHT22;4301;48.362;8.478;2022-12-26T18:23:30;8.30;99.90
8527;DHT22;4301;48.362;8.478;2022-12-26T18:26:00;8.30;99.90
8527;DHT22;4301;48.362;8.478;2022-12-26T18:28:27;8.30;99.90
8527;DHT22;4301;48.362;8.478;2022-12-26T18:30:54;8.20;99.90
8527;DHT22;4301;48.362;8.478;2022-12-26T18:33:22;8.20;99.90
8527;DHT22;4301;48.362;8.478;2022-12-26T18:35:50;8.10;99.90
8527;DHT22;4301;48.362;8.478;2022-12-26T18:38:20;8.10;99.90
8527;DHT22;4301;48.362;8.478;2022-12-26T18:40:48;8.10;99.90
8527;DHT22;4301;48.362;8.478;2022-12-26T18:43:19;8.00;99.90
8527;DHT22;4301;48.362;8.478;2022-12-26T18:45:46;8.00;99.90
8527;DHT22;4301;48.362;8.478;2022-12-26T18:48:15;7.90;99.90
8527;DHT22;4301;48.362;8.478;2022-12-26T18:50:42;7.80;99.90
8527;DHT22;4301;48.362;8.478;2022-12-26T18:53:09;7.80;99.90
8527;DHT22;4301;48.362;8.478;2022-12-26T18:55:37;7.80;99.90